Terminal Aerodrome Forecast
Issued by NWS Sioux Falls, SD

Home | Current Version | Previous Version | Graphics & Text | Print | Product List | Glossary On
Versions: 1 2 3 4 5 6 7 8 9 10 11 12 13 14 15 16 17 18 19 20 21 22 23 24 25 26 27 28 29 30 31 32 33 34 35 36 37 38 39 40 41
595
FTUS43 KFSD 102325
TAFSUX
TAF
KSUX 102325Z 1100/1124 08008KT P6SM SCT020 BKN050
     FM110900 06006KT P6SM BKN025
     FM111300 10003KT P6SM OVC018
     FM111600 14004KT P6SM OVC018
     FM112000 16007KT 3SM -SN BR OVC012=

USA.gov is the U.S. government's official web portal to all federal, state and local government web resources and services.